createdAt,value
2018-06-03T00:00:00.018Z,33.47
2018-06-03T00:02:28.027Z,29.43
2018-06-03T00:04:57.390Z,32.60
2018-06-03T00:07:26.082Z,31.40
2018-06-03T00:09:54.870Z,34.00
2018-06-03T00:12:22.905Z,33.67
2018-06-03T00:14:50.918Z,30.47
2018-06-03T00:17:18.943Z,32.40
2018-06-03T00:19:48.314Z,32.60
2018-06-03T00:22:16.638Z,32.23
2018-06-03T00:24:45.184Z,35.53
2018-06-03T00:27:14.870Z,34.17
2018-06-03T00:29:43.782Z,34.63
2018-06-03T00:32:12.206Z,36.90
2018-06-03T00:34:41.995Z,32.17
2018-06-03T00:37:10.309Z,32.93
2018-06-03T00:39:39.329Z,35.70
2018-06-03T00:42:07.586Z,42.73
2018-06-03T00:44:36.637Z,37.63
2018-06-03T00:47:05.678Z,39.90
2018-06-03T00:49:33.943Z,38.10
2018-06-03T00:52:02.963Z,41.00
2018-06-03T00:54:32.358Z,46.37
2018-06-03T00:57:07.798Z,41.30
2018-06-03T00:59:36.703Z,36.27
2018-06-03T01:02:04.946Z,39.47
2018-06-03T01:04:33.207Z,40.50
2018-06-03T01:07:02.583Z,39.20
2018-06-03T01:09:31.149Z,38.60
2018-06-03T01:12:00.894Z,38.00
2018-06-03T01:14:29.150Z,38.93
2018-06-03T01:16:58.185Z,40.03
2018-06-03T01:19:27.212Z,40.17
2018-06-03T01:21:55.445Z,41.27
2018-06-03T01:24:23.710Z,42.40
2018-06-03T01:26:51.967Z,46.70
2018-06-03T01:29:20.216Z,47.27
2018-06-03T01:31:48.483Z,43.50
2018-06-03T01:34:16.760Z,44.23
2018-06-03T01:36:45.021Z,44.13
2018-06-03T01:39:14.031Z,47.20
2018-06-03T01:41:42.284Z,52.13
2018-06-03T01:44:11.143Z,41.93
2018-06-03T01:46:40.524Z,43.03
2018-06-03T01:49:08.759Z,40.17
2018-06-03T01:51:38.541Z,43.00
2018-06-03T01:54:06.811Z,43.83
2018-06-03T01:56:35.085Z,49.20
2018-06-03T01:59:03.328Z,48.07
2018-06-03T02:01:31.598Z,45.30
2018-06-03T02:04:01.207Z,51.37
2018-06-03T02:06:30.686Z,47.07
2018-06-03T02:08:59.581Z,50.60
2018-06-03T02:11:29.208Z,53.73
2018-06-03T02:13:57.744Z,51.87
2018-06-03T02:16:26.397Z,51.30
2018-06-03T02:18:54.651Z,52.30
2018-06-03T02:21:22.908Z,55.97
2018-06-03T02:23:51.148Z,59.70
2018-06-03T02:26:20.191Z,62.23
2018-06-03T02:28:48.443Z,55.90
2018-06-03T02:31:16.691Z,53.83
2018-06-03T02:33:44.985Z,57.63
2018-06-03T02:36:13.215Z,56.43
2018-06-03T02:38:41.451Z,55.00
2018-06-03T02:41:11.778Z,57.77
2018-06-03T02:43:40.051Z,55.00
2018-06-03T02:46:09.061Z,49.10
2018-06-03T02:48:37.329Z,55.40
2018-06-03T02:51:06.371Z,47.53
2018-06-03T02:53:35.951Z,55.87
2018-06-03T02:56:04.502Z,62.00
2018-06-03T02:58:32.940Z,58.87
2018-06-03T03:01:01.180Z,64.67
2018-06-03T03:03:29.811Z,56.13
2018-06-03T03:05:58.074Z,57.83
2018-06-03T03:08:26.361Z,64.40
2018-06-03T03:10:54.627Z,56.50
2018-06-03T03:13:22.892Z,55.80
2018-06-03T03:15:51.150Z,59.17
2018-06-03T03:18:19.421Z,64.70
2018-06-03T03:20:48.800Z,62.53
2018-06-03T03:23:17.070Z,59.37
2018-06-03T03:25:45.324Z,62.17
2018-06-03T03:28:15.455Z,55.73
2018-06-03T03:30:43.571Z,65.00
2018-06-03T03:33:11.881Z,56.73
2018-06-03T03:35:41.475Z,53.50
2018-06-03T03:38:09.585Z,55.23
2018-06-03T03:40:38.612Z,63.00
2018-06-03T03:43:08.397Z,63.00
2018-06-03T03:45:36.665Z,68.20
2018-06-03T03:48:06.335Z,61.63
2018-06-03T03:50:35.841Z,53.93
2018-06-03T03:53:05.112Z,59.07
2018-06-03T03:55:34.138Z,64.10
2018-06-03T03:58:02.384Z,64.77
2018-06-03T04:00:31.411Z,60.27
2018-06-03T04:03:00.816Z,63.70
2018-06-03T04:05:29.066Z,61.90
2018-06-03T04:07:58.831Z,59.67
2018-06-03T04:10:27.083Z,61.93
2018-06-03T04:12:55.349Z,59.70
2018-06-03T04:15:23.606Z,64.33
2018-06-03T04:17:51.864Z,58.33
2018-06-03T04:20:20.145Z,60.93
2018-06-03T04:22:49.539Z,67.43
2018-06-03T04:25:17.800Z,67.30
2018-06-03T04:27:47.567Z,63.40
2018-06-03T04:30:15.845Z,59.43
2018-06-03T04:32:44.876Z,73.90
2018-06-03T04:35:13.896Z,65.57
2018-06-03T04:37:42.159Z,66.10
2018-06-03T04:40:11.778Z,62.73
2018-06-03T04:42:41.055Z,64.50
2018-06-03T04:45:10.663Z,62.53
2018-06-03T04:47:38.796Z,59.90
2018-06-03T04:50:07.055Z,59.70
2018-06-03T04:52:35.288Z,67.13
2018-06-03T04:55:03.589Z,67.77
2018-06-03T04:57:31.799Z,68.83
2018-06-03T05:00:00.042Z,67.80
2018-06-03T05:02:29.443Z,64.27
2018-06-03T05:04:57.769Z,64.30
2018-06-03T05:07:26.006Z,55.43
2018-06-03T05:09:55.403Z,58.43
2018-06-03T05:12:24.403Z,60.60
2018-06-03T05:14:52.646Z,72.77
2018-06-03T05:17:20.911Z,76.50
2018-06-03T05:19:49.944Z,75.47
2018-06-03T05:22:18.178Z,74.03
2018-06-03T05:24:47.207Z,74.70
2018-06-03T05:27:16.231Z,71.20
2018-06-03T05:29:45.234Z,75.27
2018-06-03T05:32:14.865Z,75.17
2018-06-03T05:34:42.970Z,70.57
2018-06-03T05:37:12.613Z,75.00
2018-06-03T05:39:41.520Z,76.00
2018-06-03T05:42:11.118Z,73.30
2018-06-03T05:44:39.231Z,69.97
2018-06-03T05:47:07.494Z,70.10
2018-06-03T05:49:35.747Z,70.90
2018-06-03T05:52:05.521Z,75.00
2018-06-03T05:54:33.779Z,72.90
2018-06-03T05:57:02.035Z,75.00
2018-06-03T05:59:30.270Z,81.13
2018-06-03T06:01:58.538Z,70.23
2018-06-03T06:04:26.796Z,77.33
2018-06-03T06:06:56.179Z,69.73
2018-06-03T06:09:24.454Z,76.73
2018-06-03T06:11:52.719Z,72.87
2018-06-03T06:14:20.954Z,67.83
2018-06-03T06:16:49.211Z,65.83
2018-06-03T06:19:18.985Z,72.40
2018-06-03T06:21:47.217Z,75.77
2018-06-03T06:24:15.478Z,79.83
2018-06-03T06:26:43.747Z,69.70
2018-06-03T06:29:12.058Z,80.30
2018-06-03T06:31:41.065Z,73.00
2018-06-03T06:34:09.296Z,68.77
2018-06-03T06:36:37.549Z,73.57
2018-06-03T06:39:05.803Z,72.30
2018-06-03T06:41:34.483Z,78.00
2018-06-03T06:44:02.699Z,78.57
2018-06-03T06:46:31.731Z,71.90
2018-06-03T06:49:00.771Z,75.03
2018-06-03T06:51:30.364Z,72.20
2018-06-03T06:53:58.503Z,75.43
2018-06-03T06:56:26.759Z,71.93
2018-06-03T06:58:54.998Z,78.23
2018-06-03T07:01:23.258Z,75.77
2018-06-03T07:03:51.524Z,76.73
2018-06-03T07:06:19.811Z,77.10
2018-06-03T07:08:49.415Z,72.73
2018-06-03T07:11:17.566Z,77.83
2018-06-03T07:13:45.823Z,73.17
2018-06-03T07:16:14.080Z,75.00
2018-06-03T07:18:43.692Z,77.13
2018-06-03T07:21:12.228Z,73.93
2018-06-03T07:23:40.491Z,73.63
2018-06-03T07:26:09.515Z,68.70
2018-06-03T07:28:37.756Z,70.20
2018-06-03T07:31:06.030Z,70.10
2018-06-03T07:33:34.266Z,67.93
2018-06-03T07:36:02.499Z,61.93
2018-06-03T07:38:30.762Z,66.43
2018-06-03T07:40:59.028Z,62.63
2018-06-03T07:43:27.281Z,63.90
2018-06-03T07:45:56.680Z,56.80
2018-06-03T07:48:24.938Z,52.43
2018-06-03T07:50:53.590Z,49.57
2018-06-03T07:53:21.863Z,42.63
2018-06-03T07:55:50.889Z,42.90
2018-06-03T07:58:19.149Z,41.43
2018-06-03T08:00:48.159Z,45.87
2018-06-03T08:03:17.203Z,42.97
2018-06-03T08:05:46.811Z,43.33
2018-06-03T08:08:16.539Z,44.37
2018-06-03T08:10:44.800Z,49.93
2018-06-03T08:13:13.048Z,46.83
2018-06-03T08:15:42.212Z,49.33
2018-06-03T08:18:10.492Z,48.43
2018-06-03T08:20:40.241Z,49.93
2018-06-03T08:23:08.499Z,47.10
2018-06-03T08:25:36.753Z,51.03
2018-06-03T08:28:04.999Z,50.47
2018-06-03T08:30:33.254Z,45.70
2018-06-03T08:33:01.524Z,47.50
2018-06-03T08:35:30.955Z,46.77
2018-06-03T08:37:59.204Z,49.03
2018-06-03T08:40:27.458Z,46.23
2018-06-03T08:42:56.123Z,49.20
2018-06-03T08:45:25.887Z,48.73
2018-06-03T08:47:54.139Z,46.47
2018-06-03T08:50:22.404Z,43.80
2018-06-03T08:52:51.425Z,44.67
2018-06-03T08:55:21.031Z,43.07
2018-06-03T08:57:49.953Z,42.47
2018-06-03T09:00:18.235Z,38.73
2018-06-03T09:02:46.514Z,43.67
2018-06-03T09:05:16.165Z,42.80
2018-06-03T09:07:44.274Z,45.43
2018-06-03T09:10:12.566Z,43.37
2018-06-03T09:12:40.825Z,44.47
2018-06-03T09:15:09.475Z,46.27
2018-06-03T09:17:38.847Z,45.50
2018-06-03T09:20:08.509Z,44.23
2018-06-03T09:22:37.046Z,46.23
2018-06-03T09:25:05.332Z,45.60
2018-06-03T09:27:33.573Z,43.80
2018-06-03T09:30:01.826Z,41.60
2018-06-03T09:32:31.603Z,45.37
2018-06-03T09:34:59.908Z,42.33
2018-06-03T09:37:28.164Z,46.40
2018-06-03T09:39:56.422Z,45.20
2018-06-03T09:42:25.471Z,47.60
2018-06-03T09:44:54.130Z,39.87
2018-06-03T09:47:23.808Z,38.47
2018-06-03T09:49:52.458Z,35.90
2018-06-03T09:52:20.690Z,40.43
2018-06-03T09:54:50.449Z,40.63
2018-06-03T09:57:20.058Z,43.30
2018-06-03T09:59:48.645Z,35.23
2018-06-03T10:02:18.253Z,35.73
2018-06-03T10:04:46.781Z,40.47
2018-06-03T10:07:16.385Z,39.60
2018-06-03T10:09:45.286Z,37.80
2018-06-03T10:12:13.552Z,39.60
2018-06-03T10:14:41.811Z,37.17
2018-06-03T10:17:10.067Z,36.13
2018-06-03T10:19:39.482Z,38.47
2018-06-03T10:22:07.759Z,35.47
2018-06-03T10:24:36.019Z,36.60
2018-06-03T10:27:04.342Z,40.80
2018-06-03T10:29:34.094Z,40.23
2018-06-03T10:32:02.342Z,36.30
2018-06-03T10:34:32.106Z,37.83
2018-06-03T10:37:00.403Z,35.47
2018-06-03T10:39:28.659Z,40.03
2018-06-03T10:41:56.903Z,36.40
2018-06-03T10:44:26.525Z,35.47
2018-06-03T10:46:54.665Z,36.47
2018-06-03T10:49:22.922Z,35.87
2018-06-03T10:51:51.946Z,35.47
2018-06-03T10:54:21.048Z,35.27
2018-06-03T10:56:49.262Z,35.27
2018-06-03T10:59:17.541Z,33.93
2018-06-03T11:01:46.217Z,30.50
2018-06-03T11:04:14.488Z,31.43
2018-06-03T11:06:44.089Z,29.33
2018-06-03T11:09:12.239Z,30.30
2018-06-03T11:11:42.130Z,29.60
2018-06-03T11:14:11.930Z,27.70
2018-06-03T11:16:40.195Z,27.60
2018-06-03T11:19:08.517Z,26.60
2018-06-03T11:21:38.106Z,24.37
2018-06-03T11:24:06.308Z,24.73
2018-06-03T11:26:35.050Z,25.13
2018-06-03T11:29:04.525Z,24.97
2018-06-03T11:31:32.916Z,26.67
2018-06-03T11:34:01.284Z,27.30
2018-06-03T11:36:29.755Z,23.70
2018-06-03T11:38:58.032Z,23.80
2018-06-03T11:41:27.027Z,23.10
2018-06-03T11:43:56.052Z,25.83
2018-06-03T11:46:25.578Z,26.37
2018-06-03T11:48:53.831Z,23.63
2018-06-03T11:51:22.191Z,25.20
2018-06-03T11:53:50.486Z,24.03
2018-06-03T11:56:18.673Z,24.37
2018-06-03T11:58:49.982Z,24.00
2018-06-03T12:01:18.251Z,22.10
2018-06-03T12:03:47.878Z,22.37
2018-06-03T12:06:16.415Z,22.40
2018-06-03T12:08:44.670Z,21.47
2018-06-03T12:11:13.300Z,20.33
2018-06-03T12:13:41.797Z,20.73
2018-06-03T12:16:10.614Z,17.73
2018-06-03T12:18:38.892Z,20.13
2018-06-03T12:21:07.170Z,20.00
2018-06-03T12:23:35.466Z,20.33
2018-06-03T12:26:05.314Z,19.20
2018-06-03T12:28:33.903Z,18.10
2018-06-03T12:31:02.079Z,20.80
2018-06-03T12:33:30.350Z,22.13
2018-06-03T12:35:58.665Z,23.17
2018-06-03T12:38:28.233Z,19.30
2018-06-03T12:40:56.342Z,21.33
2018-06-03T12:43:26.543Z,21.57
2018-06-03T12:45:55.070Z,18.80
2018-06-03T12:48:24.462Z,18.50
2018-06-03T12:50:52.951Z,19.67
2018-06-03T12:53:23.066Z,19.20
2018-06-03T12:55:52.840Z,18.73
2018-06-03T12:58:20.992Z,17.87
2018-06-03T13:00:50.921Z,17.57
2018-06-03T13:03:19.276Z,20.10
2018-06-03T13:05:47.522Z,17.37
2018-06-03T13:08:15.774Z,17.80
2018-06-03T13:10:44.470Z,20.10
2018-06-03T13:13:13.122Z,19.47
2018-06-03T13:15:41.394Z,20.43
2018-06-03T13:18:10.427Z,21.77
2018-06-03T13:20:39.043Z,18.53
2018-06-03T13:23:08.040Z,19.67
2018-06-03T13:25:36.538Z,19.80
2018-06-03T13:28:05.911Z,21.67
2018-06-03T13:30:34.182Z,22.30
2018-06-03T13:33:02.506Z,16.00
2018-06-03T13:35:32.186Z,21.90
2018-06-03T13:38:00.331Z,19.53
2018-06-03T13:40:32.030Z,21.10
2018-06-03T13:43:00.687Z,20.67
2018-06-03T13:45:28.955Z,20.30
2018-06-03T13:47:57.228Z,21.33
2018-06-03T13:50:26.838Z,19.20
2018-06-03T13:52:54.971Z,19.27
2018-06-03T13:55:23.235Z,19.93
2018-06-03T13:57:52.247Z,22.60
2018-06-03T14:00:21.285Z,20.40
2018-06-03T14:02:50.912Z,19.37
2018-06-03T14:05:19.809Z,18.83
2018-06-03T14:07:48.070Z,20.03
2018-06-03T14:10:16.338Z,17.87
2018-06-03T14:12:45.923Z,21.53
2018-06-03T14:15:14.047Z,19.57
2018-06-03T14:17:43.070Z,17.90
2018-06-03T14:20:12.472Z,19.83
2018-06-03T14:22:42.087Z,17.60
2018-06-03T14:25:10.607Z,19.80
2018-06-03T14:27:38.866Z,17.87
2018-06-03T14:30:07.131Z,19.17
2018-06-03T14:32:36.737Z,18.40
2018-06-03T14:35:06.011Z,18.60
2018-06-03T14:37:35.038Z,21.43
2018-06-03T14:40:03.330Z,20.57
2018-06-03T14:42:32.332Z,19.37
2018-06-03T14:45:01.733Z,17.37
2018-06-03T14:47:31.338Z,16.87
2018-06-03T14:50:31.071Z,15.90
2018-06-03T14:52:59.665Z,19.10
2018-06-03T14:55:28.604Z,20.57
2018-06-03T14:57:57.568Z,17.67
2018-06-03T15:00:26.267Z,17.10
2018-06-03T15:02:55.103Z,20.67
2018-06-03T15:05:23.831Z,21.57
2018-06-03T15:07:52.482Z,17.43
2018-06-03T15:10:21.362Z,16.83
2018-06-03T15:12:50.349Z,16.00
2018-06-03T15:15:19.100Z,18.27
2018-06-03T15:17:47.947Z,18.23
2018-06-03T15:20:16.725Z,19.37
2018-06-03T15:22:45.339Z,19.93
2018-06-03T15:25:14.313Z,16.40
2018-06-03T15:27:42.933Z,18.40
2018-06-03T15:30:11.869Z,15.67
2018-06-03T15:32:41.007Z,14.63
2018-06-03T15:35:09.773Z,16.50
2018-06-03T15:37:38.438Z,15.83
2018-06-03T15:40:07.547Z,15.13
2018-06-03T15:42:36.798Z,14.27
2018-06-03T15:45:05.999Z,15.00
2018-06-03T15:47:35.168Z,15.93
2018-06-03T15:50:03.927Z,15.43
2018-06-03T15:52:32.588Z,14.83
2018-06-03T15:55:01.468Z,19.43
2018-06-03T15:57:30.487Z,19.43
2018-06-03T15:59:59.470Z,19.23
2018-06-03T16:02:28.467Z,18.67
2018-06-03T16:04:57.286Z,26.23
2018-06-03T16:07:26.311Z,17.37
2018-06-03T16:09:55.100Z,14.30
2018-06-03T16:12:24.002Z,16.20
2018-06-03T16:14:52.755Z,15.80
2018-06-03T16:17:21.603Z,13.60
2018-06-03T16:19:50.357Z,14.63
2018-06-03T16:22:19.264Z,14.40
2018-06-03T16:24:47.983Z,13.60
2018-06-03T16:27:16.838Z,13.50
2018-06-03T16:29:45.546Z,13.40
2018-06-03T16:32:14.180Z,14.53
2018-06-03T16:34:42.801Z,13.73
2018-06-03T16:37:11.660Z,12.53
2018-06-03T16:39:40.368Z,12.43
2018-06-03T16:42:09.234Z,11.90
2018-06-03T16:44:37.950Z,12.40
2018-06-03T16:47:06.549Z,12.43
2018-06-03T16:49:35.179Z,11.20
2018-06-03T16:52:04.075Z,11.27
2018-06-03T16:54:32.862Z,11.53
2018-06-03T16:57:01.472Z,13.10
2018-06-03T16:59:30.298Z,12.63
2018-06-03T17:01:59.281Z,10.10
2018-06-03T17:04:28.226Z,12.57
2018-06-03T17:06:56.991Z,12.37
2018-06-03T17:09:25.647Z,11.53
2018-06-03T17:11:54.230Z,12.43
2018-06-03T17:14:23.087Z,11.87
2018-06-03T17:16:51.835Z,12.63
2018-06-03T17:19:20.427Z,12.43
2018-06-03T17:21:49.018Z,10.93
2018-06-03T17:24:17.851Z,12.17
2018-06-03T17:26:46.577Z,11.03
2018-06-03T17:29:15.416Z,11.77
2018-06-03T17:31:44.171Z,11.10
2018-06-03T17:34:13.034Z,10.80
2018-06-03T17:36:41.988Z,10.00
2018-06-03T17:39:10.958Z,9.20
2018-06-03T17:41:39.942Z,9.47
2018-06-03T17:44:08.671Z,9.37
2018-06-03T17:46:37.279Z,9.47
2018-06-03T17:49:05.874Z,9.60
2018-06-03T17:51:34.710Z,10.23
2018-06-03T17:54:03.473Z,10.33
2018-06-03T17:56:32.095Z,9.30
2018-06-03T17:59:00.695Z,7.87
2018-06-03T18:01:29.534Z,8.77
2018-06-03T18:03:58.246Z,8.87
2018-06-03T18:06:27.078Z,9.30
2018-06-03T18:08:56.693Z,9.97
2018-06-03T18:11:25.592Z,9.77
2018-06-03T18:13:54.530Z,8.43
2018-06-03T18:16:23.255Z,7.70
2018-06-03T18:18:52.097Z,8.03
2018-06-03T18:21:20.828Z,8.60
2018-06-03T18:23:49.402Z,8.27
2018-06-03T18:26:18.342Z,8.10
2018-06-03T18:28:47.058Z,9.80
2018-06-03T18:31:15.664Z,8.93
2018-06-03T18:33:44.295Z,8.27
2018-06-03T18:36:13.163Z,9.17
2018-06-03T18:38:41.849Z,9.37
2018-06-03T18:41:10.417Z,9.53
2018-06-03T18:43:39.055Z,9.07
2018-06-03T18:46:07.889Z,7.57
2018-06-03T18:48:36.613Z,11.53
2018-06-03T18:51:05.386Z,8.03
2018-06-03T18:53:33.975Z,9.00
2018-06-03T18:56:02.556Z,9.60
2018-06-03T18:58:31.384Z,7.00
2018-06-03T19:01:00.352Z,8.87
2018-06-03T19:03:29.074Z,7.10
2018-06-03T19:05:57.935Z,7.83
2018-06-03T19:08:26.933Z,8.20
2018-06-03T19:10:55.649Z,7.93
2018-06-03T19:13:24.517Z,9.10
2018-06-03T19:15:53.266Z,9.97
2018-06-03T19:18:21.894Z,9.50
2018-06-03T19:20:50.780Z,9.47
2018-06-03T19:23:19.513Z,9.70
2018-06-03T19:25:48.136Z,8.90
2018-06-03T19:28:16.972Z,8.27
2018-06-03T19:30:45.944Z,8.60
2018-06-03T19:33:14.939Z,8.83
2018-06-03T19:35:43.805Z,10.43
2018-06-03T19:38:12.545Z,9.23
2018-06-03T19:40:41.367Z,8.20
2018-06-03T19:43:10.365Z,9.97
2018-06-03T19:45:39.125Z,9.60
2018-06-03T19:48:07.933Z,10.03
2018-06-03T19:50:36.658Z,10.70
2018-06-03T19:53:05.283Z,12.77
2018-06-03T19:55:34.132Z,10.53
2018-06-03T19:58:03.084Z,9.93
2018-06-03T20:00:31.857Z,12.40
2018-06-03T20:03:00.689Z,10.77
2018-06-03T20:05:29.430Z,10.70
2018-06-03T20:07:58.054Z,11.30
2018-06-03T20:10:26.890Z,11.50
2018-06-03T20:12:55.859Z,10.20
2018-06-03T20:15:24.816Z,12.87
2018-06-03T20:17:54.220Z,12.80
2018-06-03T20:20:23.502Z,11.87
2018-06-03T20:22:52.230Z,11.73
2018-06-03T20:25:20.830Z,12.40
2018-06-03T20:27:49.686Z,12.77
2018-06-03T20:30:18.675Z,10.90
2018-06-03T20:32:47.422Z,11.40
2018-06-03T20:35:16.276Z,11.60
2018-06-03T20:37:45.265Z,11.30
2018-06-03T20:40:14.261Z,11.83
2018-06-03T20:42:43.229Z,12.73
2018-06-03T20:45:12.202Z,13.23
2018-06-03T20:47:40.950Z,13.17
2018-06-03T20:50:09.813Z,13.33
2018-06-03T20:52:38.795Z,12.20
2018-06-03T20:55:07.533Z,12.50
2018-06-03T20:57:36.150Z,12.87
2018-06-03T21:00:04.982Z,13.20
2018-06-03T21:02:33.952Z,13.03
2018-06-03T21:05:02.699Z,14.70
2018-06-03T21:07:31.578Z,13.53
2018-06-03T21:10:00.309Z,14.27
2018-06-03T21:12:29.012Z,15.03
2018-06-03T21:14:57.593Z,14.80
2018-06-03T21:17:26.437Z,14.47
2018-06-03T21:19:55.200Z,14.00
2018-06-03T21:22:24.055Z,15.77
2018-06-03T21:24:53.033Z,14.97
2018-06-03T21:27:21.750Z,15.07
2018-06-03T21:29:50.576Z,15.13
2018-06-03T21:32:19.486Z,15.07
2018-06-03T21:34:48.078Z,15.23
2018-06-03T21:37:16.941Z,14.30
2018-06-03T21:39:45.680Z,14.90
2018-06-03T21:42:14.276Z,15.93
2018-06-03T21:44:43.122Z,15.50
2018-06-03T21:47:11.859Z,15.60
2018-06-03T21:49:40.475Z,14.83
2018-06-03T21:52:09.299Z,16.47
2018-06-03T21:54:38.235Z,14.97
2018-06-03T21:57:06.958Z,15.10
2018-06-03T21:59:35.786Z,17.07
2018-06-03T22:02:04.526Z,15.47
2018-06-03T22:04:33.124Z,15.83
2018-06-03T22:07:01.962Z,16.10
2018-06-03T22:09:30.953Z,15.70
2018-06-03T22:11:59.649Z,17.90
2018-06-03T22:14:28.463Z,16.73
2018-06-03T22:16:57.434Z,17.00
2018-06-03T22:19:26.390Z,15.93
2018-06-03T22:21:55.342Z,15.63
2018-06-03T22:24:24.107Z,16.20
2018-06-03T22:26:52.995Z,15.50
2018-06-03T22:29:21.930Z,15.90
2018-06-03T22:31:50.677Z,17.40
2018-06-03T22:34:19.536Z,16.80
2018-06-03T22:36:48.246Z,17.97
2018-06-03T22:39:16.844Z,17.23
2018-06-03T22:41:45.434Z,17.37
2018-06-03T22:44:14.314Z,15.97
2018-06-03T22:46:43.080Z,15.17
2018-06-03T22:49:11.883Z,17.13
2018-06-03T22:51:40.835Z,16.10
2018-06-03T22:54:09.570Z,16.83
2018-06-03T22:56:43.707Z,16.03
2018-06-03T22:59:12.536Z,14.53
2018-06-03T23:01:41.274Z,19.63
2018-06-03T23:04:09.877Z,16.67
2018-06-03T23:06:38.720Z,17.10
2018-06-03T23:09:07.690Z,18.10
2018-06-03T23:11:36.414Z,16.70
2018-06-03T23:14:05.213Z,16.73
2018-06-03T23:16:33.944Z,15.97
2018-06-03T23:19:02.546Z,16.53
2018-06-03T23:21:31.372Z,15.70
2018-06-03T23:24:00.354Z,18.63
2018-06-03T23:26:29.842Z,16.27
2018-06-03T23:28:58.705Z,15.60
2018-06-03T23:31:27.669Z,16.90
2018-06-03T23:33:56.627Z,16.00
2018-06-03T23:36:25.326Z,18.10
2018-06-03T23:38:54.178Z,16.30
2018-06-03T23:41:23.132Z,20.43
2018-06-03T23:43:51.822Z,17.17
2018-06-03T23:46:20.633Z,18.23
2018-06-03T23:48:49.346Z,17.13
2018-06-03T23:51:17.928Z,17.77
2018-06-03T23:53:46.765Z,17.00
2018-06-03T23:56:15.699Z,17.80
2018-06-03T23:58:44.409Z,39.03
